Time;durP1;ratioP1;P1;durP2;ratioP2;P2;SDS_P1;SDS_P2;PMS_P1;PMS_P2;Temp;Humidity;BMP_temperature;BMP_pressure;BME280_temperature;BME280_humidity;BME280_pressure;Samples;Min_cycle;Max_cycle;Signal;HPM_P1;HPM_P2
2022/09/27 00:00:05;;;;;;;6.32;0.95;;;10.30;99.90;;;;;;5086537;28;20024;-82
2022/09/27 00:02:38;;;;;;;8.13;1.40;;;10.20;99.90;;;;;;5099637;28;20044;-84
2022/09/27 00:05:05;;;;;;;6.03;1.00;;;10.30;99.90;;;;;;5069964;28;20473;-83
2022/09/27 00:07:32;;;;;;;9.35;1.08;;;10.20;99.90;;;;;;5100798;28;20032;-82
2022/09/27 00:09:58;;;;;;;8.75;1.85;;;10.20;99.90;;;;;;5096575;28;20040;-82
2022/09/27 00:12:24;;;;;;;10.30;1.10;;;10.20;99.90;;;;;;5065632;28;20027;-82
2022/09/27 00:14:50;;;;;;;4.05;1.10;;;10.20;99.90;;;;;;5099605;28;20023;-83
2022/09/27 00:17:17;;;;;;;9.10;1.25;;;10.10;99.90;;;;;;5086680;28;20389;-82
2022/09/27 00:19:43;;;;;;;6.95;1.13;;;10.10;99.90;;;;;;5100248;28;20047;-83
2022/09/27 00:22:09;;;;;;;5.82;1.60;;;10.10;99.90;;;;;;5068853;28;20024;-83
2022/09/27 00:24:36;;;;;;;4.22;0.80;;;10.10;99.90;;;;;;5080801;28;20028;-82
2022/09/27 00:27:02;;;;;;;10.30;1.38;;;10.00;99.90;;;;;;5069573;28;20032;-82
2022/09/27 00:29:28;;;;;;;4.05;0.82;;;10.00;99.90;;;;;;5102189;28;20031;-82
2022/09/27 00:31:55;;;;;;;6.95;1.00;;;10.00;99.90;;;;;;5086571;28;20035;-84
2022/09/27 00:34:24;;;;;;;4.43;1.25;;;10.00;99.90;;;;;;5103346;28;20015;-83
2022/09/27 00:36:51;;;;;;;11.60;1.10;;;9.90;99.90;;;;;;5085444;28;20037;-83
2022/09/27 00:39:18;;;;;;;4.43;0.90;;;9.90;99.90;;;;;;5075241;28;20050;-80
2022/09/27 00:41:44;;;;;;;5.00;0.60;;;9.90;99.90;;;;;;5085650;28;20035;-83
2022/09/27 00:44:32;;;;;;;5.55;0.70;;;9.90;99.90;;;;;;5089918;28;20473;-84
2022/09/27 00:47:31;;;;;;;5.63;0.77;;;9.90;99.90;;;;;;5076974;28;20042;-82
2022/09/27 00:50:19;;;;;;;9.65;0.60;;;9.90;99.90;;;;;;5090550;28;20488;-82
2022/09/27 00:53:33;;;;;;;3.58;0.60;;;9.90;99.90;;;;;;5103738;28;20366;-82
2022/09/27 00:56:02;;;;;;;3.92;0.50;;;9.90;99.90;;;;;;5040849;28;20040;-82
2022/09/27 00:58:34;;;;;;;3.53;0.50;;;9.90;99.90;;;;;;5085212;28;20036;-82
2022/09/27 01:01:03;;;;;;;3.55;0.50;;;9.90;99.90;;;;;;5078024;28;20377;-83
2022/09/27 01:03:43;;;;;;;4.85;0.40;;;9.90;99.90;;;;;;5077827;28;20892;-82
2022/09/27 01:06:09;;;;;;;2.80;0.40;;;9.90;99.90;;;;;;5062637;28;20035;-82
2022/09/27 01:08:36;;;;;;;4.50;0.50;;;9.90;99.90;;;;;;5073740;28;20051;-82
2022/09/27 01:11:30;;;;;;;2.42;0.40;;;9.90;99.90;;;;;;5065488;28;20388;-83
2022/09/27 01:14:18;;;;;;;5.00;0.80;;;9.90;99.90;;;;;;5072445;28;20030;-83
2022/09/27 01:17:03;;;;;;;3.50;0.52;;;9.80;99.90;;;;;;5066918;28;20035;-82
2022/09/27 01:20:00;;;;;;;3.20;0.60;;;9.80;99.90;;;;;;5064468;28;20028;-82
2022/09/27 01:22:39;;;;;;;2.42;0.60;;;9.90;99.90;;;;;;5057293;28;20036;-84
2022/09/27 01:25:14;;;;;;;2.55;0.40;;;9.90;99.90;;;;;;5089866;28;20043;-80
2022/09/27 01:28:26;;;;;;;2.47;0.40;;;10.00;99.90;;;;;;5062392;28;20416;-83
2022/09/27 01:31:07;;;;;;;3.95;0.88;;;10.00;99.90;;;;;;5047313;28;20120;-82
2022/09/27 01:33:43;;;;;;;2.45;0.60;;;10.00;99.90;;;;;;5049379;28;20028;-84
2022/09/27 01:36:19;;;;;;;7.47;0.60;;;9.90;99.90;;;;;;5075034;28;20036;-83
2022/09/27 01:39:04;;;;;;;6.53;0.77;;;9.90;99.90;;;;;;5086028;28;20023;-84
2022/09/27 01:41:53;;;;;;;4.35;0.50;;;9.80;99.90;;;;;;5088708;28;20024;-84
2022/09/27 01:45:04;;;;;;;3.35;0.55;;;9.80;99.90;;;;;;5087774;28;20071;-83
2022/09/27 01:47:47;;;;;;;3.00;0.60;;;9.80;99.90;;;;;;5049184;28;20047;-81
2022/09/27 01:50:43;;;;;;;3.30;0.35;;;9.70;99.90;;;;;;5101757;28;20042;-84
2022/09/27 01:53:33;;;;;;;4.22;0.32;;;9.70;99.90;;;;;;5067737;28;20385;-84
2022/09/27 01:56:22;;;;;;;5.32;0.85;;;9.60;99.90;;;;;;5072345;28;20028;-83
2022/09/27 01:59:16;;;;;;;2.60;0.40;;;9.60;99.90;;;;;;5077391;28;20090;-83
2022/09/27 02:01:51;;;;;;;2.42;0.30;;;9.50;99.90;;;;;;5069166;28;20028;-83
2022/09/27 02:04:22;;;;;;;2.60;0.30;;;9.40;99.90;;;;;;5088860;28;20098;-81
2022/09/27 02:07:17;;;;;;;0.88;0.28;;;9.40;99.90;;;;;;5071818;28;20476;-83
2022/09/27 02:09:48;;;;;;;1.95;0.20;;;9.30;99.90;;;;;;5083636;28;20043;-83
2022/09/27 02:12:24;;;;;;;2.35;0.30;;;9.30;99.90;;;;;;5089444;28;20020;-82
2022/09/27 02:15:10;;;;;;;4.10;0.30;;;9.20;99.90;;;;;;5102192;28;20050;-83
2022/09/27 02:18:01;;;;;;;3.17;0.30;;;9.20;99.90;;;;;;5070848;28;20039;-84
2022/09/27 02:20:40;;;;;;;2.10;0.30;;;9.20;99.90;;;;;;5085301;28;20047;-84
2022/09/27 02:23:13;;;;;;;1.30;0.30;;;9.10;99.90;;;;;;5083120;28;20040;-83
2022/09/27 02:25:59;;;;;;;3.83;0.45;;;9.10;99.90;;;;;;5072852;28;20028;-83
2022/09/27 02:28:56;;;;;;;1.98;0.20;;;9.10;99.90;;;;;;5104780;28;20023;-82
2022/09/27 02:31:29;;;;;;;2.13;0.50;;;9.10;99.90;;;;;;5083945;28;20046;-83
2022/09/27 02:34:08;;;;;;;4.72;0.30;;;9.00;99.90;;;;;;5088996;28;20035;-83
2022/09/27 02:36:35;;;;;;;3.50;0.40;;;9.00;99.90;;;;;;5090388;28;20036;-81
2022/09/27 02:39:01;;;;;;;3.38;0.20;;;9.00;99.90;;;;;;5088806;28;20525;-82
2022/09/27 02:41:30;;;;;;;3.53;0.30;;;9.00;99.90;;;;;;5090057;28;20377;-84
2022/09/27 02:44:01;;;;;;;2.35;0.50;;;8.90;99.90;;;;;;5088189;28;20039;-83
2022/09/27 02:46:55;;;;;;;1.98;0.25;;;8.90;99.90;;;;;;5088821;28;20042;-82
2022/09/27 02:49:51;;;;;;;1.70;0.30;;;8.90;99.90;;;;;;5071687;28;20032;-84
2022/09/27 02:52:52;;;;;;;2.65;0.30;;;8.90;99.90;;;;;;5099032;28;20529;-82
2022/09/27 02:55:59;;;;;;;2.45;0.30;;;8.90;99.90;;;;;;5087854;28;20039;-82
2022/09/27 02:59:19;;;;;;;1.65;0.30;;;8.90;99.90;;;;;;5084313;28;20050;-83
2022/09/27 03:02:18;;;;;;;1.65;0.20;;;8.90;99.90;;;;;;5075754;28;20032;-82
2022/09/27 03:05:13;;;;;;;5.35;0.32;;;8.90;99.90;;;;;;5050420;28;20039;-76
2022/09/27 03:07:40;;;;;;;3.03;0.22;;;8.90;99.90;;;;;;5098259;28;20040;-78
2022/09/27 03:10:14;;;;;;;2.55;0.20;;;8.80;99.90;;;;;;5068311;28;20389;-77
2022/09/27 03:12:40;;;;;;;5.72;0.60;;;8.80;99.90;;;;;;5078993;28;20016;-77
2022/09/27 03:15:07;;;;;;;4.50;0.50;;;8.80;99.90;;;;;;5063954;28;20046;-76
2022/09/27 03:18:05;;;;;;;7.40;0.50;;;8.80;99.90;;;;;;5041721;28;20036;-79
2022/09/27 03:20:58;;;;;;;4.65;0.60;;;8.70;99.90;;;;;;5100870;28;20027;-77
2022/09/27 03:23:25;;;;;;;10.10;0.75;;;8.80;99.90;;;;;;5102617;28;20378;-77
2022/09/27 03:25:52;;;;;;;4.65;0.30;;;8.80;99.90;;;;;;5085950;28;20027;-81
2022/09/27 03:28:18;;;;;;;3.03;0.50;;;8.80;99.90;;;;;;5070087;28;20381;-80
2022/09/27 03:30:45;;;;;;;5.45;0.45;;;8.80;99.90;;;;;;5069703;28;20474;-79
2022/09/27 03:33:16;;;;;;;2.60;0.50;;;8.80;99.90;;;;;;5067150;28;20062;-80
2022/09/27 03:35:52;;;;;;;4.28;0.43;;;8.80;99.90;;;;;;5087895;28;20031;-79
2022/09/27 03:38:18;;;;;;;2.95;0.40;;;8.80;99.90;;;;;;5087819;28;20237;-80
2022/09/27 03:40:45;;;;;;;2.92;0.30;;;8.80;99.90;;;;;;5054545;28;20043;-80
2022/09/27 03:43:11;;;;;;;5.43;0.43;;;8.80;99.90;;;;;;5070851;28;20039;-80
2022/09/27 03:45:38;;;;;;;1.85;0.20;;;8.80;99.90;;;;;;5084684;28;20035;-80
2022/09/27 03:48:08;;;;;;;4.03;0.40;;;8.80;99.90;;;;;;5084046;28;20028;-79
2022/09/27 03:50:35;;;;;;;2.28;0.30;;;8.80;99.90;;;;;;5067592;28;20036;-79
2022/09/27 03:53:01;;;;;;;5.95;0.30;;;8.70;99.90;;;;;;5070033;28;20378;-80
2022/09/27 03:55:27;;;;;;;2.38;0.30;;;8.70;99.90;;;;;;5070873;28;20374;-80
2022/09/27 03:57:54;;;;;;;4.07;0.40;;;8.70;99.90;;;;;;5070890;28;20045;-80
2022/09/27 04:00:21;;;;;;;3.78;0.30;;;8.70;99.90;;;;;;5084674;28;20043;-80
2022/09/27 04:02:48;;;;;;;5.47;0.35;;;8.60;99.90;;;;;;5097900;28;20039;-80
2022/09/27 04:05:24;;;;;;;5.25;0.50;;;8.60;99.90;;;;;;5099904;28;20035;-79
2022/09/27 04:07:55;;;;;;;3.65;0.30;;;8.60;99.90;;;;;;5085344;28;20085;-79
2022/09/27 04:10:23;;;;;;;3.90;0.73;;;8.60;99.90;;;;;;5073002;28;20031;-80
2022/09/27 04:12:50;;;;;;;3.35;0.30;;;8.60;99.90;;;;;;5067906;28;20397;-79
2022/09/27 04:15:18;;;;;;;3.97;0.50;;;8.70;99.90;;;;;;5092399;28;20065;-80
2022/09/27 04:17:50;;;;;;;5.78;1.13;;;8.70;99.90;;;;;;5067478;28;20032;-79
2022/09/27 04:20:39;;;;;;;6.25;0.80;;;8.70;99.90;;;;;;5076397;28;20213;-79
2022/09/27 04:23:08;;;;;;;6.63;0.90;;;8.80;99.90;;;;;;5074591;28;20038;-79
2022/09/27 04:25:40;;;;;;;4.25;0.88;;;8.80;99.90;;;;;;5050589;28;20019;-80
2022/09/27 04:28:19;;;;;;;12.20;1.20;;;8.90;99.90;;;;;;5090311;28;20039;-79
2022/09/27 04:30:46;;;;;;;4.25;0.52;;;8.90;99.90;;;;;;5090015;28;20324;-79
2022/09/27 04:33:32;;;;;;;8.95;0.70;;;8.90;99.90;;;;;;5068266;28;20469;-80
2022/09/27 04:39:11;;;;;;;5.15;0.60;;;9.00;99.90;;;;;;5073876;28;20042;-79
2022/09/27 04:41:40;;;;;;;7.25;1.05;;;9.00;99.90;;;;;;5074409;28;20473;-79
2022/09/27 04:44:07;;;;;;;5.05;0.60;;;9.00;99.90;;;;;;5090683;28;20047;-80
2022/09/27 04:46:34;;;;;;;5.22;0.77;;;9.00;99.90;;;;;;5069824;28;20027;-79
2022/09/27 04:49:01;;;;;;;4.03;0.73;;;9.00;99.90;;;;;;5090802;28;20030;-80
2022/09/27 04:51:29;;;;;;;4.63;0.50;;;9.00;99.90;;;;;;5092352;28;20032;-81
2022/09/27 04:53:57;;;;;;;4.57;0.60;;;9.00;99.90;;;;;;5061748;28;20028;-81
2022/09/27 04:56:27;;;;;;;3.47;0.70;;;9.00;99.90;;;;;;5072592;28;20043;-81
2022/09/27 04:58:53;;;;;;;5.20;0.75;;;8.90;99.90;;;;;;5088542;28;20035;-81
2022/09/27 05:01:21;;;;;;;5.35;0.50;;;8.90;99.90;;;;;;5074633;28;20028;-82
2022/09/27 05:04:06;;;;;;;5.63;1.00;;;8.80;99.90;;;;;;5075804;28;20240;-83
2022/09/27 05:06:35;;;;;;;6.57;0.50;;;8.80;99.90;;;;;;5075433;28;20035;-80
2022/09/27 05:09:07;;;;;;;8.93;1.08;;;8.80;99.90;;;;;;5092650;28;20031;-81
2022/09/27 05:11:44;;;;;;;5.70;1.00;;;8.70;99.90;;;;;;5073806;28;20036;-80
2022/09/27 05:14:40;;;;;;;4.78;0.93;;;8.70;99.90;;;;;;5090909;27;20488;-81
2022/09/27 05:17:30;;;;;;;4.18;0.82;;;8.70;99.90;;;;;;5054950;28;20039;-80
2022/09/27 05:20:14;;;;;;;5.60;0.63;;;8.70;99.90;;;;;;5095159;28;20489;-82
2022/09/27 05:22:52;;;;;;;5.85;0.50;;;8.60;99.90;;;;;;5090192;27;20035;-81
2022/09/27 05:25:18;;;;;;;5.40;0.70;;;8.60;99.90;;;;;;5074270;28;20058;-81
2022/09/27 05:27:44;;;;;;;45.10;21.58;;;8.60;99.90;;;;;;5072777;28;20023;-83
2022/09/27 05:30:11;;;;;;;13.55;5.38;;;8.60;99.90;;;;;;5076257;28;20477;-82
2022/09/27 05:32:48;;;;;;;14.00;2.53;;;8.60;99.90;;;;;;5057235;28;20354;-81
2022/09/27 05:35:34;;;;;;;5.00;0.80;;;8.60;99.90;;;;;;5110443;28;20752;-83
2022/09/27 05:38:01;;;;;;;6.32;1.20;;;8.60;99.90;;;;;;5072252;28;20473;-83
2022/09/27 05:40:30;;;;;;;8.27;0.80;;;8.60;99.90;;;;;;5098449;28;20144;-81
2022/09/27 05:42:56;;;;;;;6.28;0.60;;;8.60;99.90;;;;;;5079068;28;20050;-83
2022/09/27 05:45:24;;;;;;;3.28;0.60;;;8.50;99.90;;;;;;5082327;28;20039;-82
2022/09/27 05:47:57;;;;;;;4.38;0.50;;;8.50;99.90;;;;;;5092384;28;20056;-82
2022/09/27 05:50:26;;;;;;;3.90;0.65;;;8.50;99.90;;;;;;5061590;28;20543;-82
2022/09/27 05:52:53;;;;;;;5.90;0.55;;;8.50;99.90;;;;;;5091102;28;20032;-82
2022/09/27 05:55:20;;;;;;;4.07;0.60;;;8.50;99.90;;;;;;5089643;28;20040;-83
2022/09/27 05:57:59;;;;;;;8.20;1.00;;;8.50;99.90;;;;;;5066031;28;20032;-83
2022/09/27 06:00:32;;;;;;;6.88;0.80;;;8.50;99.90;;;;;;5068303;28;20028;-83
2022/09/27 06:03:03;;;;;;;9.52;1.17;;;8.50;99.90;;;;;;5093575;28;20043;-83
2022/09/27 06:05:48;;;;;;;6.35;0.60;;;8.50;99.90;;;;;;5091248;28;20493;-85
2022/09/27 06:08:39;;;;;;;5.78;0.70;;;8.60;99.90;;;;;;5073327;28;20034;-84
2022/09/27 06:11:09;;;;;;;2.40;0.75;;;8.60;99.90;;;;;;5091430;28;20040;-84
2022/09/27 06:13:35;;;;;;;5.60;0.80;;;8.60;99.90;;;;;;5091096;28;20024;-84
2022/09/27 06:16:03;;;;;;;7.13;0.82;;;8.60;99.90;;;;;;5055114;28;20028;-84
2022/09/27 06:18:29;;;;;;;9.73;1.45;;;8.70;99.90;;;;;;5073787;28;20031;-85
2022/09/27 06:20:59;;;;;;;7.60;0.90;;;8.60;99.90;;;;;;5069416;28;20042;-83
2022/09/27 06:23:26;;;;;;;5.35;1.10;;;8.80;99.90;;;;;;5090868;28;20039;-84
2022/09/27 06:25:55;;;;;;;4.20;0.70;;;8.80;99.90;;;;;;5073353;28;20035;-86
2022/09/27 06:28:47;;;;;;;8.30;1.27;;;8.90;99.90;;;;;;5074443;28;20048;-85
2022/09/27 06:31:15;;;;;;;4.18;1.15;;;8.90;99.90;;;;;;5074051;28;20284;-85
2022/09/27 06:33:52;;;;;;;6.32;1.33;;;9.00;99.90;;;;;;5089536;28;20043;-83
2022/09/27 06:36:18;;;;;;;5.20;1.38;;;9.20;99.90;;;;;;5074328;28;20023;-83
2022/09/27 06:38:48;;;;;;;6.20;1.48;;;9.40;99.90;;;;;;5076878;28;20048;-81
2022/09/27 06:41:18;;;;;;;5.53;1.52;;;9.50;99.90;;;;;;5083568;28;20449;-79
2022/09/27 06:43:52;;;;;;;6.90;1.73;;;9.70;99.90;;;;;;5086712;28;20349;-79
2022/09/27 06:46:38;;;;;;;7.32;1.50;;;9.80;99.90;;;;;;5092042;28;20394;-78
2022/09/27 06:49:10;;;;;;;4.13;1.30;;;9.80;99.90;;;;;;5104859;28;20039;-83
2022/09/27 06:51:38;;;;;;;4.57;1.23;;;9.70;99.90;;;;;;5073632;28;20023;-84
2022/09/27 06:54:04;;;;;;;4.00;0.80;;;9.70;99.90;;;;;;5072922;28;20035;-83
2022/09/27 06:56:31;;;;;;;3.03;1.23;;;9.80;99.90;;;;;;5090998;28;20034;-78
2022/09/27 07:01:43;;;;;;;5.97;1.30;;;9.80;99.90;;;;;;5105375;27;20019;-80
2022/09/27 07:04:28;;;;;;;6.95;0.80;;;9.80;99.90;;;;;;5086357;28;20102;-79
2022/09/27 07:07:09;;;;;;;4.82;0.90;;;9.90;99.90;;;;;;5068382;28;20031;-85
2022/09/27 07:09:39;;;;;;;4.43;0.95;;;10.00;99.90;;;;;;5091105;28;20057;-79
2022/09/27 07:12:05;;;;;;;6.45;1.58;;;10.10;99.90;;;;;;5084759;28;20454;-82
2022/09/27 07:14:33;;;;;;;5.80;1.17;;;10.10;99.90;;;;;;5071616;28;20039;-81
2022/09/27 07:17:00;;;;;;;4.82;1.60;;;10.20;99.90;;;;;;5087679;28;20035;-79
2022/09/27 07:19:32;;;;;;;6.13;1.67;;;10.20;99.90;;;;;;5099815;28;20039;-82
2022/09/27 07:21:58;;;;;;;4.47;0.80;;;10.20;99.90;;;;;;5075421;28;20489;-78
2022/09/27 07:24:24;;;;;;;9.93;1.17;;;10.20;99.90;;;;;;5088377;28;20417;-87
2022/09/27 07:26:51;;;;;;;4.82;0.90;;;10.20;99.90;;;;;;5089517;28;20046;-88
2022/09/27 07:29:20;;;;;;;3.72;0.90;;;10.20;99.90;;;;;;5075773;28;20036;-90
2022/09/27 07:31:48;;;;;;;2.88;0.75;;;10.20;99.90;;;;;;5072872;28;20022;-89
2022/09/27 07:34:17;;;;;;;4.00;0.73;;;10.30;99.90;;;;;;5086686;28;20024;-86
2022/09/27 07:36:43;;;;;;;4.50;1.40;;;10.30;99.90;;;;;;5056224;28;20039;-89
2022/09/27 07:39:09;;;;;;;6.50;0.90;;;10.40;99.90;;;;;;5065904;28;20049;-88
2022/09/27 07:41:38;;;;;;;4.72;1.15;;;10.40;99.90;;;;;;5091068;28;20027;-87
2022/09/27 07:44:06;;;;;;;5.22;1.25;;;10.50;99.90;;;;;;5090437;28;20386;-87
2022/09/27 07:46:35;;;;;;;6.07;1.33;;;10.50;99.90;;;;;;5089830;28;20095;-82
2022/09/27 07:49:17;;;;;;;4.72;1.13;;;10.50;99.90;;;;;;5074538;28;20024;-89
2022/09/27 07:51:50;;;;;;;6.28;1.30;;;10.60;99.90;;;;;;5091453;28;20034;-90
2022/09/27 07:54:36;;;;;;;5.18;1.10;;;10.80;99.90;;;;;;5108244;28;20465;-88
2022/09/27 07:57:05;;;;;;;4.65;1.17;;;10.90;99.90;;;;;;5106478;28;20043;-88
2022/09/27 07:59:34;;;;;;;4.85;1.52;;;11.00;99.90;;;;;;5054938;28;20354;-86
2022/09/27 08:02:01;;;;;;;6.22;0.95;;;11.00;99.90;;;;;;5071890;28;20032;-86
2022/09/27 08:04:27;;;;;;;5.30;1.20;;;11.00;99.90;;;;;;5107675;28;20038;-85
2022/09/27 08:06:54;;;;;;;4.22;1.13;;;11.10;99.90;;;;;;5088642;28;20086;-84
2022/09/27 08:09:22;;;;;;;4.75;0.90;;;11.10;99.90;;;;;;5069604;28;20034;-87
2022/09/27 08:11:48;;;;;;;3.15;0.80;;;11.10;99.90;;;;;;5089585;28;20038;-86
2022/09/27 08:14:15;;;;;;;3.28;1.00;;;11.20;99.90;;;;;;5084334;28;20043;-88
2022/09/27 08:16:44;;;;;;;5.85;0.68;;;11.20;99.90;;;;;;5080312;28;20034;-87
2022/09/27 08:19:29;;;;;;;3.20;0.60;;;11.20;99.90;;;;;;5069832;28;20028;-87
2022/09/27 08:22:13;;;;;;;2.65;0.70;;;11.30;99.90;;;;;;5106841;28;20020;-88
2022/09/27 08:24:52;;;;;;;4.15;0.63;;;11.40;99.90;;;;;;5072376;28;20306;-88
2022/09/27 08:27:55;;;;;;;3.08;0.80;;;11.50;99.90;;;;;;5042709;28;20081;-85
2022/09/27 08:30:32;;;;;;;2.85;1.35;;;11.60;99.90;;;;;;5067693;28;20059;-85
2022/09/27 08:33:02;;;;;;;3.60;0.70;;;11.70;99.90;;;;;;5073060;28;20386;-87
2022/09/27 08:35:30;;;;;;;7.68;1.55;;;11.80;99.90;;;;;;5088607;28;20038;-87
2022/09/27 08:38:01;;;;;;;3.65;1.02;;;11.80;99.90;;;;;;5087182;28;20464;-87
2022/09/27 08:40:53;;;;;;;4.55;0.93;;;11.80;99.90;;;;;;5072741;28;20031;-85
2022/09/27 08:43:36;;;;;;;2.95;1.20;;;11.70;99.90;;;;;;5071833;28;20048;-87
2022/09/27 08:46:14;;;;;;;7.93;1.63;;;11.70;99.90;;;;;;5091253;28;20044;-85
2022/09/27 08:48:45;;;;;;;1.92;0.75;;;11.60;99.90;;;;;;5086179;28;20035;-86
2022/09/27 08:51:13;;;;;;;5.13;1.23;;;11.50;99.90;;;;;;5109714;28;20038;-87
2022/09/27 08:53:45;;;;;;;3.60;1.20;;;11.60;99.90;;;;;;5075318;28;20036;-83
2022/09/27 08:56:14;;;;;;;3.03;1.30;;;11.50;99.90;;;;;;5060018;28;20035;-86
2022/09/27 08:59:00;;;;;;;4.35;1.60;;;11.60;99.90;;;;;;5112848;28;20381;-86
2022/09/27 09:01:32;;;;;;;4.05;1.45;;;11.60;99.90;;;;;;5083838;28;20043;-86
2022/09/27 09:04:09;;;;;;;4.20;2.83;;;11.60;99.90;;;;;;5082829;28;20036;-82
2022/09/27 09:07:03;;;;;;;3.92;2.17;;;11.70;99.90;;;;;;5077065;28;20035;-84
2022/09/27 09:09:47;;;;;;;4.80;1.95;;;11.80;99.90;;;;;;5110731;28;20031;-85
2022/09/27 09:12:47;;;;;;;4.80;2.65;;;11.90;99.90;;;;;;5108332;28;20118;-85
2022/09/27 09:15:55;;;;;;;4.47;2.65;;;11.90;99.90;;;;;;5070869;28;20043;-86
2022/09/27 09:19:00;;;;;;;5.65;2.00;;;12.00;99.90;;;;;;5078398;28;20436;-87
2022/09/27 09:21:38;;;;;;;3.58;2.67;;;12.00;99.90;;;;;;5093534;28;20039;-86
2022/09/27 09:24:36;;;;;;;3.25;1.50;;;12.10;99.90;;;;;;5091955;28;20441;-85
2022/09/27 09:27:13;;;;;;;4.75;2.10;;;12.10;99.90;;;;;;5105962;28;20465;-86
2022/09/27 09:30:19;;;;;;;2.25;1.00;;;12.20;99.90;;;;;;5092107;28;20028;-86
2022/09/27 09:33:12;;;;;;;2.03;0.63;;;12.30;99.90;;;;;;5089656;28;20032;-84
2022/09/27 09:36:12;;;;;;;2.90;0.75;;;12.20;99.90;;;;;;5092252;28;20050;-86
2022/09/27 09:39:09;;;;;;;1.40;0.50;;;12.20;99.90;;;;;;5084843;28;20504;-86
2022/09/27 09:42:00;;;;;;;2.05;0.65;;;12.00;99.90;;;;;;5062518;28;20134;-85
2022/09/27 09:44:33;;;;;;;3.50;0.80;;;11.90;99.90;;;;;;5092155;28;20048;-85
2022/09/27 09:47:02;;;;;;;1.80;0.70;;;11.80;99.90;;;;;;5068661;28;20032;-86
2022/09/27 09:49:45;;;;;;;4.10;1.50;;;11.70;99.90;;;;;;5090639;28;20035;-86
2022/09/27 09:52:18;;;;;;;2.97;0.80;;;11.70;99.90;;;;;;5108968;28;20043;-87
2022/09/27 09:55:06;;;;;;;3.78;0.68;;;11.60;99.90;;;;;;5052234;28;20024;-85
2022/09/27 09:57:42;;;;;;;2.53;0.65;;;11.50;99.90;;;;;;5065766;28;20042;-83
2022/09/27 10:00:17;;;;;;;2.42;0.80;;;11.40;99.90;;;;;;5090364;28;20203;-85
2022/09/27 10:02:46;;;;;;;9.93;1.20;;;11.40;99.90;;;;;;5090461;28;20032;-87
2022/09/27 10:05:21;;;;;;;4.88;0.98;;;11.50;99.90;;;;;;5071843;28;20039;-88
2022/09/27 10:07:56;;;;;;;3.40;0.70;;;11.50;99.90;;;;;;5063049;28;20051;-86
2022/09/27 10:10:22;;;;;;;3.67;1.00;;;11.60;99.90;;;;;;5071805;28;20027;-88
2022/09/27 10:13:21;;;;;;;5.57;0.50;;;11.60;99.90;;;;;;5092785;28;20054;-87
2022/09/27 10:16:01;;;;;;;2.75;0.50;;;11.70;99.90;;;;;;5092472;28;20042;-86
2022/09/27 10:18:28;;;;;;;1.30;0.40;;;11.70;99.90;;;;;;5089555;28;20470;-84
2022/09/27 10:21:00;;;;;;;1.60;0.40;;;11.70;99.90;;;;;;5054041;28;20035;-87
2022/09/27 10:23:27;;;;;;;1.73;0.40;;;11.70;99.90;;;;;;5091577;28;20382;-89
2022/09/27 10:26:18;;;;;;;2.67;0.45;;;11.70;99.90;;;;;;5107473;28;20047;-85
2022/09/27 10:28:49;;;;;;;5.28;1.98;;;11.70;99.90;;;;;;5087865;28;20369;-88
2022/09/27 10:31:20;;;;;;;6.57;1.63;;;11.70;99.90;;;;;;5090369;28;20030;-86
2022/09/27 10:34:21;;;;;;;4.35;0.50;;;11.70;99.90;;;;;;5093014;28;20439;-86
2022/09/27 10:37:11;;;;;;;1.58;0.40;;;11.60;99.90;;;;;;5070430;28;20040;-85
2022/09/27 10:39:41;;;;;;;4.80;0.60;;;11.60;99.90;;;;;;5088802;28;20035;-85
2022/09/27 10:42:29;;;;;;;2.17;0.30;;;11.70;99.90;;;;;;5089218;28;20031;-86
2022/09/27 10:44:55;;;;;;;4.65;0.40;;;11.70;99.90;;;;;;5083968;28;20035;-86
2022/09/27 10:47:38;;;;;;;2.80;0.40;;;11.80;99.90;;;;;;5070131;28;20039;-85
2022/09/27 10:50:25;;;;;;;3.15;0.30;;;11.90;99.90;;;;;;5075762;28;20038;-87
2022/09/27 10:53:19;;;;;;;4.78;0.60;;;11.90;99.90;;;;;;5090555;28;20031;-85
2022/09/27 10:55:55;;;;;;;1.30;0.30;;;12.00;99.90;;;;;;5072832;28;20504;-85
2022/09/27 10:58:33;;;;;;;2.30;0.43;;;12.00;99.90;;;;;;5070638;28;20499;-89
2022/09/27 11:01:06;;;;;;;3.00;0.30;;;12.20;99.90;;;;;;5089029;28;20500;-85
2022/09/27 11:03:57;;;;;;;2.78;0.30;;;12.30;99.90;;;;;;5057426;28;20040;-86
2022/09/27 11:06:24;;;;;;;3.67;0.38;;;12.50;99.90;;;;;;5090357;28;20035;-86
2022/09/27 11:08:53;;;;;;;1.80;0.38;;;12.60;99.90;;;;;;5087408;28;20044;-84
2022/09/27 11:11:23;;;;;;;1.15;0.20;;;12.60;99.90;;;;;;5064651;28;20037;-85
2022/09/27 11:13:57;;;;;;;3.03;0.35;;;12.60;99.90;;;;;;5087760;28;20482;-83
2022/09/27 11:16:55;;;;;;;7.35;0.20;;;12.50;99.90;;;;;;5073130;28;20051;-87
2022/09/27 11:19:32;;;;;;;1.45;0.40;;;12.40;99.90;;;;;;5087259;28;20024;-78
2022/09/27 11:22:26;;;;;;;2.30;0.47;;;12.40;99.90;;;;;;5058875;28;20027;-79
2022/09/27 11:25:09;;;;;;;1.58;0.30;;;12.40;99.90;;;;;;5065492;28;20048;-79
2022/09/27 11:27:44;;;;;;;1.98;0.45;;;12.30;99.90;;;;;;5079376;28;20349;-80
2022/09/27 11:30:22;;;;;;;1.52;0.20;;;12.20;99.90;;;;;;5069742;28;20027;-80
2022/09/27 11:33:35;;;;;;;1.65;0.20;;;12.20;99.90;;;;;;5089078;28;20031;-80
2022/09/27 11:36:12;;;;;;;1.13;0.20;;;12.20;99.90;;;;;;5031752;28;20043;-83
2022/09/27 11:39:01;;;;;;;4.07;0.30;;;12.30;99.90;;;;;;5085798;28;20050;-83
2022/09/27 11:42:16;;;;;;;0.77;0.30;;;12.50;99.90;;;;;;5087660;28;20031;-83
2022/09/27 11:44:49;;;;;;;2.28;0.30;;;12.90;99.90;;;;;;5071393;28;20048;-83
2022/09/27 11:47:31;;;;;;;2.50;0.30;;;13.30;99.90;;;;;;5067582;28;20035;-85
2022/09/27 11:50:18;;;;;;;2.70;0.30;;;13.70;99.90;;;;;;5070738;28;20024;-84
2022/09/27 11:53:07;;;;;;;1.73;0.30;;;14.30;99.90;;;;;;5087292;28;20039;-83
2022/09/27 11:55:53;;;;;;;3.20;0.20;;;14.50;99.90;;;;;;5086600;28;20047;-82
2022/09/27 11:58:32;;;;;;;1.88;0.20;;;14.60;99.90;;;;;;5084555;28;20042;-81
2022/09/27 12:01:54;;;;;;;2.78;0.30;;;14.70;99.90;;;;;;5076495;28;20063;-81
2022/09/27 12:04:43;;;;;;;3.40;0.20;;;14.50;99.90;;;;;;5033070;28;20060;-81
2022/09/27 12:07:30;;;;;;;1.00;0.20;;;14.10;99.90;;;;;;5074303;28;20631;-81
2022/09/27 12:10:03;;;;;;;1.33;0.20;;;13.80;99.90;;;;;;5054489;28;20050;-80
2022/09/27 12:12:34;;;;;;;0.77;0.17;;;13.60;99.90;;;;;;5089573;28;20024;-79
2022/09/27 12:15:05;;;;;;;0.95;0.20;;;13.40;99.90;;;;;;5088176;28;20462;-79
2022/09/27 12:17:39;;;;;;;1.65;0.22;;;13.40;99.90;;;;;;5069533;28;20466;-81
2022/09/27 12:20:15;;;;;;;1.80;0.20;;;13.30;99.90;;;;;;5094321;28;20031;-80
2022/09/27 12:23:06;;;;;;;1.60;0.20;;;13.20;99.90;;;;;;5088023;28;20028;-80
2022/09/27 12:25:59;;;;;;;1.48;0.10;;;13.30;99.90;;;;;;5102610;28;20036;-79
2022/09/27 12:28:40;;;;;;;2.97;0.20;;;13.40;99.90;;;;;;5069915;28;20034;-79
2022/09/27 12:31:35;;;;;;;3.22;0.30;;;13.60;99.90;;;;;;5093058;28;20496;-79
2022/09/27 12:34:19;;;;;;;1.17;0.10;;;13.80;99.90;;;;;;5091949;28;20036;-80
2022/09/27 12:37:06;;;;;;;1.30;0.10;;;14.20;99.90;;;;;;5090236;28;20484;-80
2022/09/27 12:39:48;;;;;;;1.30;0.20;;;14.40;99.90;;;;;;5075190;28;20024;-78
2022/09/27 12:42:43;;;;;;;0.63;0.10;;;14.80;99.90;;;;;;5093092;28;20401;-75
2022/09/27 12:45:48;;;;;;;0.80;0.20;;;14.90;99.90;;;;;;5088409;28;20047;-75
2022/09/27 12:48:21;;;;;;;1.13;0.40;;;14.90;99.90;;;;;;5103397;28;20032;-75
2022/09/27 12:51:10;;;;;;;0.80;0.20;;;14.70;99.90;;;;;;5107047;28;20066;-81
2022/09/27 12:53:58;;;;;;;1.05;0.20;;;14.60;99.90;;;;;;5072764;28;20038;-78
2022/09/27 12:56:32;;;;;;;0.30;0.10;;;14.50;99.90;;;;;;5070184;28;20417;-81
2022/09/27 12:59:01;;;;;;;0.32;0.10;;;14.30;99.90;;;;;;5105488;28;20040;-78
2022/09/27 13:01:31;;;;;;;0.68;0.10;;;14.30;99.90;;;;;;5073122;28;20024;-79
2022/09/27 13:04:21;;;;;;;1.02;0.15;;;14.40;99.90;;;;;;5088645;28;20521;-79
2022/09/27 13:07:12;;;;;;;0.40;0.10;;;14.60;99.90;;;;;;5088017;28;20457;-79
2022/09/27 13:10:13;;;;;;;1.00;0.30;;;14.50;99.90;;;;;;5089402;28;20039;-79
2022/09/27 13:12:47;;;;;;;1.50;0.25;;;14.20;99.90;;;;;;5088840;28;20032;-79
2022/09/27 13:15:19;;;;;;;1.20;0.20;;;13.70;99.90;;;;;;5089438;28;20051;-77
2022/09/27 13:17:49;;;;;;;;;;;13.50;99.90;;;;;;5086821;28;20082;-80
2022/09/27 13:20:34;;;;;;;1.55;0.20;;;13.20;99.90;;;;;;5073321;28;19954;-79
2022/09/27 13:23:17;;;;;;;0.88;0.20;;;13.00;99.90;;;;;;5088930;28;20035;-80
2022/09/27 13:25:50;;;;;;;0.65;0.20;;;13.00;99.90;;;;;;5089533;28;20351;-80
2022/09/27 13:28:31;;;;;;;;;;;12.90;99.90;;;;;;5084338;28;20446;-77
2022/09/27 13:31:13;;;;;;;1.50;0.10;;;12.70;99.90;;;;;;5056014;28;19930;-80
2022/09/27 13:33:47;;;;;;;0.68;0.10;;;12.50;99.90;;;;;;5088238;28;20055;-82
2022/09/27 13:36:31;;;;;;;0.82;0.15;;;12.20;99.90;;;;;;5089532;28;20058;-82
2022/09/27 13:39:18;;;;;;;0.40;0.15;;;12.00;99.90;;;;;;5056014;28;20035;-82
2022/09/27 13:42:29;;;;;;;0.75;0.10;;;11.90;99.90;;;;;;5081161;28;20062;-82
2022/09/27 13:45:18;;;;;;;1.33;0.20;;;11.80;99.90;;;;;;5072047;28;20378;-80
2022/09/27 13:47:49;;;;;;;0.95;0.10;;;11.70;99.90;;;;;;5088303;28;20034;-82
2022/09/27 13:50:34;;;;;;;1.48;0.10;;;11.70;99.90;;;;;;5088778;28;20070;-79
2022/09/27 13:53:23;;;;;;;1.25;0.30;;;11.60;99.90;;;;;;5088795;28;20047;-81